Time;durP1;ratioP1;P1;durP2;ratioP2;P2;SDS_P1;SDS_P2;PMS_P1;PMS_P2;Temp;Humidity;BMP_temperature;BMP_pressure;BME280_temperature;BME280_humidity;BME280_pressure;Samples;Min_cycle;Max_cycle;Signal;HPM_P1;HPM_P2
2023/05/30 00:01:22;;;;;;;13.82;4.65;;;10.90;80.70;;;;;;5042609;28;20095;-44
2023/05/30 00:03:49;;;;;;;13.43;4.57;;;10.90;80.30;;;;;;5034421;28;20030;-44
2023/05/30 00:06:15;;;;;;;14.73;4.43;;;10.90;79.70;;;;;;5015720;28;20045;-44
2023/05/30 00:08:43;;;;;;;17.67;7.35;;;10.90;79.60;;;;;;5022037;28;20033;-47
2023/05/30 00:11:14;;;;;;;13.75;3.78;;;10.90;79.50;;;;;;5034559;28;20037;-45
2023/05/30 00:13:42;;;;;;;12.25;4.50;;;10.90;79.60;;;;;;5032465;28;20461;-50
2023/05/30 00:16:10;;;;;;;14.23;4.53;;;10.90;79.60;;;;;;5038009;28;20040;-46
2023/05/30 00:18:38;;;;;;;10.07;5.03;;;10.90;79.80;;;;;;5053004;28;20025;-44
2023/05/30 00:21:06;;;;;;;15.57;3.85;;;10.80;80.00;;;;;;5043020;28;20513;-45
2023/05/30 00:23:38;;;;;;;11.65;3.72;;;10.80;80.00;;;;;;5014459;28;20467;-44
2023/05/30 00:26:08;;;;;;;16.58;5.53;;;10.70;80.20;;;;;;5053078;28;20083;-44
2023/05/30 00:28:38;;;;;;;;;;;10.70;80.20;;;;;;5054202;28;20032;-46
2023/05/30 00:31:08;;;;;;;21.58;5.82;;;10.60;80.60;;;;;;5033936;28;20405;-44
2023/05/30 00:33:35;;;;;;;16.02;4.63;;;10.70;80.80;;;;;;5032661;28;20094;-44
2023/05/30 00:36:02;;;;;;;11.80;4.53;;;10.70;80.90;;;;;;5034325;28;20034;-45
2023/05/30 00:38:29;;;;;;;15.52;4.20;;;10.70;80.80;;;;;;5014223;28;20036;-44
2023/05/30 00:40:56;;;;;;;19.92;4.63;;;10.80;81.10;;;;;;5042156;28;20116;-46
2023/05/30 00:43:22;;;;;;;17.10;5.18;;;10.70;80.90;;;;;;5047031;28;20038;-44
2023/05/30 00:45:52;;;;;;;17.40;4.85;;;10.70;81.00;;;;;;5018347;28;20025;-44
2023/05/30 00:48:20;;;;;;;12.75;4.65;;;10.60;81.20;;;;;;5032700;28;20232;-44
2023/05/30 00:50:47;;;;;;;14.73;4.53;;;10.70;80.90;;;;;;5033404;28;20034;-43
2023/05/30 00:53:16;;;;;;;17.63;4.72;;;10.70;81.00;;;;;;5020583;28;20319;-45
2023/05/30 00:55:43;;;;;;;15.63;5.15;;;10.70;81.10;;;;;;5030935;28;20025;-45
2023/05/30 00:58:11;;;;;;;12.45;4.72;;;10.70;81.20;;;;;;5013507;28;20034;-43
2023/05/30 01:00:39;;;;;;;12.80;4.40;;;10.80;81.30;;;;;;5015806;28;20021;-45
2023/05/30 01:03:09;;;;;;;17.88;5.53;;;10.80;81.70;;;;;;5013366;28;20119;-45
2023/05/30 01:05:39;;;;;;;15.10;5.05;;;10.90;81.60;;;;;;5012203;28;20030;-44
2023/05/30 01:08:05;;;;;;;14.05;4.20;;;10.90;81.40;;;;;;5012976;28;20069;-45
2023/05/30 01:10:34;;;;;;;11.32;4.60;;;10.90;81.40;;;;;;5022714;28;20889;-44
2023/05/30 01:13:39;;;;;;;13.85;4.13;;;10.90;81.30;;;;;;5023908;28;20045;-44
2023/05/30 01:16:25;;;;;;;18.63;5.72;;;10.90;81.30;;;;;;5031282;28;20443;-44
2023/05/30 01:19:21;;;;;;;13.63;4.47;;;11.00;81.40;;;;;;5023468;28;20099;-45
2023/05/30 01:21:47;;;;;;;18.77;5.03;;;10.90;81.40;;;;;;4995566;28;20452;-44
2023/05/30 01:24:42;;;;;;;11.18;5.00;;;11.00;81.40;;;;;;5016778;28;20044;-43
2023/05/30 01:27:24;;;;;;;13.18;5.70;;;11.00;81.60;;;;;;5030390;28;20044;-44
2023/05/30 01:29:53;;;;;;;18.25;5.75;;;11.00;81.90;;;;;;5030802;28;20486;-44
2023/05/30 01:32:20;;;;;;;16.27;4.85;;;11.00;81.50;;;;;;5021508;28;20041;-44
2023/05/30 01:34:48;;;;;;;17.52;4.63;;;11.00;81.60;;;;;;5013425;28;20018;-44
2023/05/30 01:37:15;;;;;;;13.48;4.40;;;11.00;81.80;;;;;;5013066;28;20038;-44
2023/05/30 01:39:41;;;;;;;15.68;4.50;;;11.00;81.90;;;;;;5017024;28;20113;-47
2023/05/30 01:42:18;;;;;;;12.20;3.72;;;11.00;82.10;;;;;;5013146;28;20041;-45
2023/05/30 01:45:14;;;;;;;19.25;4.85;;;11.10;82.30;;;;;;5012334;28;20336;-45
2023/05/30 01:47:56;;;;;;;10.73;4.35;;;11.00;82.30;;;;;;5031592;28;20030;-45
2023/05/30 01:50:37;;;;;;;16.98;4.97;;;11.00;82.40;;;;;;5050733;28;20029;-45
2023/05/30 01:53:09;;;;;;;27.33;5.43;;;11.10;82.40;;;;;;5052412;28;20036;-46
2023/05/30 01:55:38;;;;;;;13.75;4.30;;;11.10;82.60;;;;;;5034671;28;20509;-44
2023/05/30 01:58:09;;;;;;;12.30;4.68;;;11.10;82.50;;;;;;5041834;28;20107;-45
2023/05/30 02:00:40;;;;;;;19.30;5.28;;;11.10;82.50;;;;;;5026440;28;20057;-44
2023/05/30 02:03:06;;;;;;;20.10;4.35;;;11.10;82.60;;;;;;5037663;28;20037;-48
2023/05/30 02:05:32;;;;;;;13.45;4.03;;;11.00;82.90;;;;;;5014549;28;20053;-44
2023/05/30 02:07:59;;;;;;;15.30;5.45;;;11.10;83.10;;;;;;5012534;28;20418;-45
2023/05/30 02:10:25;;;;;;;14.45;4.72;;;11.10;83.10;;;;;;5027960;28;20024;-44
2023/05/30 02:12:51;;;;;;;15.50;4.55;;;11.10;83.10;;;;;;5040206;28;20428;-43
2023/05/30 02:15:22;;;;;;;12.65;4.43;;;11.10;83.20;;;;;;5026763;28;20060;-45
2023/05/30 02:17:49;;;;;;;12.55;4.15;;;11.10;83.20;;;;;;5022545;28;20026;-44
2023/05/30 02:20:16;;;;;;;18.45;4.50;;;11.20;83.30;;;;;;5012982;28;20054;-43
2023/05/30 02:22:43;;;;;;;17.80;4.63;;;11.20;83.30;;;;;;5012533;28;20030;-43
2023/05/30 02:25:10;;;;;;;18.92;4.13;;;11.10;83.30;;;;;;5026141;28;20068;-44
2023/05/30 02:27:37;;;;;;;20.95;4.38;;;11.10;83.40;;;;;;5015901;28;20096;-45
2023/05/30 02:30:05;;;;;;;16.95;4.07;;;11.10;83.40;;;;;;5043727;28;20036;-45
2023/05/30 02:32:32;;;;;;;16.90;5.03;;;11.20;83.50;;;;;;5050638;28;20044;-47
2023/05/30 02:34:59;;;;;;;12.63;4.40;;;11.20;83.50;;;;;;5032694;28;20021;-44
2023/05/30 02:37:29;;;;;;;10.93;4.00;;;11.20;83.70;;;;;;5031834;28;20030;-44
2023/05/30 02:39:56;;;;;;;21.25;6.18;;;11.20;83.80;;;;;;5044031;28;20021;-43
2023/05/30 02:42:23;;;;;;;18.40;6.03;;;11.20;83.90;;;;;;5016624;28;20041;-44
2023/05/30 02:44:49;;;;;;;14.45;6.05;;;11.20;84.20;;;;;;5013336;28;20120;-44
2023/05/30 02:47:16;;;;;;;14.10;6.30;;;11.20;84.50;;;;;;5029509;28;20052;-44
2023/05/30 02:49:42;;;;;;;16.85;4.97;;;11.20;84.80;;;;;;5031353;28;20040;-44
2023/05/30 02:52:08;;;;;;;22.52;5.45;;;11.20;84.80;;;;;;5015580;28;20028;-43
2023/05/30 02:54:34;;;;;;;15.00;5.53;;;11.20;84.80;;;;;;5028068;28;20030;-44
2023/05/30 02:57:04;;;;;;;14.57;5.15;;;11.20;85.00;;;;;;5031286;28;20113;-45
2023/05/30 02:59:34;;;;;;;14.77;5.10;;;11.20;85.20;;;;;;5015922;28;20100;-45
2023/05/30 03:02:00;;;;;;;18.58;5.43;;;11.20;85.50;;;;;;5045038;28;20515;-43
2023/05/30 03:04:27;;;;;;;17.75;5.57;;;11.20;85.60;;;;;;5037789;28;20038;-44
2023/05/30 03:06:59;;;;;;;18.48;6.70;;;11.20;85.80;;;;;;5031019;28;20049;-44
2023/05/30 03:09:26;;;;;;;15.65;4.70;;;11.20;85.90;;;;;;5039446;28;20032;-44
2023/05/30 03:11:55;;;;;;;16.70;5.07;;;11.20;86.00;;;;;;5054457;28;20064;-44
2023/05/30 03:14:21;;;;;;;13.50;5.03;;;11.10;86.50;;;;;;5054591;28;20076;-45
2023/05/30 03:16:48;;;;;;;17.30;4.38;;;11.10;86.70;;;;;;5038454;28;20033;-46
2023/05/30 03:19:15;;;;;;;11.75;4.15;;;11.20;86.90;;;;;;5035049;28;20049;-44
2023/05/30 03:21:42;;;;;;;16.33;4.78;;;11.10;87.10;;;;;;5033832;28;20032;-45
2023/05/30 03:24:12;;;;;;;12.75;4.47;;;11.10;87.30;;;;;;5033971;28;20048;-44
2023/05/30 03:26:39;;;;;;;12.13;4.03;;;11.00;87.50;;;;;;5033149;28;20044;-44
2023/05/30 03:29:07;;;;;;;10.35;3.92;;;11.00;87.70;;;;;;5034838;28;20053;-46
2023/05/30 03:31:35;;;;;;;8.95;3.75;;;11.00;87.90;;;;;;5039812;28;20612;-44
2023/05/30 03:34:02;;;;;;;14.23;4.28;;;11.00;88.00;;;;;;5015376;28;20022;-47
2023/05/30 03:36:28;;;;;;;9.82;4.05;;;11.00;88.20;;;;;;5014367;28;20026;-44
2023/05/30 03:38:55;;;;;;;14.93;4.40;;;11.00;88.40;;;;;;5021803;28;20032;-44
2023/05/30 03:41:23;;;;;;;9.95;3.83;;;11.00;88.50;;;;;;5030015;28;20053;-44
2023/05/30 03:43:48;;;;;;;10.38;3.80;;;11.00;88.80;;;;;;5023661;28;20048;-45
2023/05/30 03:46:16;;;;;;;14.73;5.18;;;11.00;88.90;;;;;;5033951;28;20067;-45
2023/05/30 03:48:48;;;;;;;16.52;4.07;;;11.00;88.90;;;;;;5033431;28;20025;-43
2023/05/30 03:51:15;;;;;;;13.38;3.92;;;11.00;89.00;;;;;;5033880;28;20025;-44
2023/05/30 03:53:45;;;;;;;13.95;6.10;;;11.00;89.00;;;;;;5025924;28;20021;-45
2023/05/30 03:56:12;;;;;;;16.35;4.03;;;10.90;89.30;;;;;;5029016;28;20049;-43
2023/05/30 03:58:39;;;;;;;14.70;4.40;;;10.90;89.60;;;;;;5014884;28;20021;-45
2023/05/30 04:01:07;;;;;;;15.02;5.60;;;11.00;89.90;;;;;;5024982;28;20104;-44
2023/05/30 04:03:37;;;;;;;16.50;4.57;;;11.00;89.90;;;;;;5054410;28;20021;-43
2023/05/30 04:06:05;;;;;;;12.88;4.20;;;11.00;90.00;;;;;;5033657;28;20348;-46
2023/05/30 04:08:32;;;;;;;15.30;5.05;;;10.90;90.00;;;;;;5038163;28;20053;-44
2023/05/30 04:10:59;;;;;;;10.02;4.20;;;10.90;90.10;;;;;;5054078;28;20064;-44
2023/05/30 04:13:27;;;;;;;9.68;3.28;;;10.90;90.20;;;;;;5054523;28;20040;-44
2023/05/30 04:15:55;;;;;;;11.60;3.63;;;10.90;89.90;;;;;;5030410;28;20356;-45
2023/05/30 04:18:22;;;;;;;9.43;3.47;;;10.90;90.10;;;;;;5014489;28;20036;-45
2023/05/30 04:20:48;;;;;;;10.80;3.40;;;10.90;90.20;;;;;;5030170;28;20068;-44
2023/05/30 04:23:16;;;;;;;12.85;4.65;;;10.90;90.30;;;;;;5026413;28;20332;-45
2023/05/30 04:25:47;;;;;;;13.75;4.70;;;10.90;90.40;;;;;;5014390;28;20494;-43
2023/05/30 04:28:16;;;;;;;10.68;4.03;;;10.90;90.60;;;;;;5036092;28;20056;-45
2023/05/30 04:30:48;;;;;;;15.00;3.92;;;10.90;90.70;;;;;;5031627;28;20029;-44
2023/05/30 04:33:18;;;;;;;12.27;4.32;;;10.90;90.80;;;;;;5041589;28;20125;-46
2023/05/30 04:35:44;;;;;;;12.68;3.50;;;10.90;90.90;;;;;;5044459;28;20025;-44
2023/05/30 04:38:19;;;;;;;14.80;5.45;;;10.90;90.90;;;;;;5028555;28;20017;-44
2023/05/30 04:40:50;;;;;;;11.30;3.45;;;10.90;91.00;;;;;;5031390;28;20021;-44
2023/05/30 04:43:19;;;;;;;17.73;4.20;;;10.90;90.90;;;;;;5048561;28;20622;-43
2023/05/30 04:45:50;;;;;;;13.30;4.17;;;10.90;91.00;;;;;;5042004;28;20037;-44
2023/05/30 04:48:17;;;;;;;14.07;4.57;;;10.90;91.10;;;;;;5035029;28;20033;-43
2023/05/30 04:50:47;;;;;;;9.93;3.97;;;10.90;91.30;;;;;;5033222;28;20029;-44
2023/05/30 04:53:15;;;;;;;17.02;4.93;;;10.90;91.40;;;;;;5032081;28;20472;-45
2023/05/30 04:55:45;;;;;;;11.00;4.07;;;10.90;91.30;;;;;;5032436;28;20049;-44
2023/05/30 04:58:12;;;;;;;;;;;10.90;91.20;;;;;;5014261;28;20061;-45
2023/05/30 05:00:40;;;;;;;11.75;4.03;;;10.90;91.00;;;;;;5018598;28;19909;-44
2023/05/30 05:03:07;;;;;;;8.60;3.28;;;10.90;90.90;;;;;;5052265;28;20086;-43
2023/05/30 05:05:34;;;;;;;11.00;3.55;;;10.80;90.60;;;;;;5035434;28;20340;-44
2023/05/30 05:08:01;;;;;;;6.55;3.20;;;10.90;90.50;;;;;;5031404;28;20045;-44
2023/05/30 05:10:28;;;;;;;7.32;3.40;;;10.90;90.20;;;;;;5032001;28;20053;-43
2023/05/30 05:12:54;;;;;;;7.80;3.00;;;10.90;90.20;;;;;;5028382;28;20037;-43
2023/05/30 05:15:20;;;;;;;10.00;3.40;;;11.00;90.30;;;;;;5025667;28;20022;-45
2023/05/30 05:17:47;;;;;;;13.40;3.83;;;11.00;90.20;;;;;;5029622;28;20483;-45
2023/05/30 05:20:14;;;;;;;9.18;3.70;;;11.10;90.10;;;;;;5031962;28;20040;-43
2023/05/30 05:22:39;;;;;;;10.98;3.58;;;11.00;90.10;;;;;;5034541;28;20430;-43
2023/05/30 05:25:06;;;;;;;12.60;3.70;;;11.10;90.10;;;;;;5030729;28;20109;-44
2023/05/30 05:27:37;;;;;;;14.45;4.20;;;11.10;90.00;;;;;;5024767;28;20060;-45
2023/05/30 05:30:05;;;;;;;9.55;4.28;;;11.10;89.80;;;;;;5037372;28;20389;-44
2023/05/30 05:32:36;;;;;;;11.75;4.25;;;11.10;89.70;;;;;;5051774;28;20021;-44
2023/05/30 05:35:04;;;;;;;15.82;4.60;;;11.20;89.80;;;;;;5033780;28;20022;-45
2023/05/30 05:37:31;;;;;;;11.40;3.97;;;11.20;89.90;;;;;;5031299;28;20025;-45
2023/05/30 05:39:59;;;;;;;12.30;4.93;;;11.20;90.00;;;;;;5031587;28;20108;-44
2023/05/30 05:42:25;;;;;;;13.32;4.78;;;11.20;90.00;;;;;;5032721;28;20335;-44
2023/05/30 05:44:54;;;;;;;15.77;6.53;;;11.20;90.10;;;;;;5030746;28;20041;-46
2023/05/30 05:47:20;;;;;;;10.57;3.75;;;11.30;90.20;;;;;;5028877;28;20026;-46
2023/05/30 05:49:47;;;;;;;10.27;3.20;;;11.30;90.00;;;;;;5030558;28;20476;-44
2023/05/30 05:52:13;;;;;;;8.93;2.83;;;11.30;89.70;;;;;;5026315;28;20033;-45
2023/05/30 05:54:40;;;;;;;6.32;2.67;;;11.40;89.20;;;;;;5020495;28;20088;-44
2023/05/30 05:57:06;;;;;;;9.38;3.08;;;11.30;89.00;;;;;;5028328;28;20072;-43
2023/05/30 05:59:32;;;;;;;11.05;3.08;;;11.40;89.10;;;;;;5028570;28;20032;-45
2023/05/30 06:02:00;;;;;;;8.07;3.13;;;11.40;89.10;;;;;;5040247;28;20370;-44
2023/05/30 06:04:27;;;;;;;10.27;4.07;;;11.40;89.20;;;;;;5048710;28;20036;-45
2023/05/30 06:06:54;;;;;;;9.73;3.10;;;11.50;89.40;;;;;;5028956;28;20058;-45
2023/05/30 06:09:21;;;;;;;10.38;3.17;;;11.50;89.20;;;;;;5023295;28;20025;-44
2023/05/30 06:11:47;;;;;;;10.20;3.03;;;11.50;89.20;;;;;;5019276;28;20022;-45
2023/05/30 06:14:13;;;;;;;10.15;3.85;;;11.50;89.20;;;;;;5012787;28;20026;-44
2023/05/30 06:16:40;;;;;;;8.65;3.35;;;11.60;89.20;;;;;;5024315;28;20113;-46
2023/05/30 06:19:07;;;;;;;9.55;3.35;;;11.50;89.20;;;;;;5031638;28;20044;-44
2023/05/30 06:21:34;;;;;;;14.52;3.75;;;11.50;89.60;;;;;;5032220;28;20021;-44
2023/05/30 06:24:00;;;;;;;8.75;2.83;;;11.50;89.90;;;;;;5030747;28;20041;-44
2023/05/30 06:26:27;;;;;;;6.28;2.80;;;11.60;90.10;;;;;;5042530;28;20083;-44
2023/05/30 06:28:54;;;;;;;8.85;3.70;;;11.70;90.20;;;;;;5017769;28;20371;-44
2023/05/30 06:31:21;;;;;;;7.38;2.72;;;11.70;90.00;;;;;;5028454;28;20022;-44
2023/05/30 06:33:48;;;;;;;11.77;3.17;;;11.80;89.60;;;;;;5022404;28;20065;-44
2023/05/30 06:36:16;;;;;;;9.18;3.20;;;11.90;89.40;;;;;;5018014;28;20421;-44
2023/05/30 06:38:45;;;;;;;4.57;2.10;;;11.90;88.60;;;;;;5027082;28;20700;-43
2023/05/30 06:41:13;;;;;;;7.15;2.13;;;11.80;87.90;;;;;;5017879;28;20080;-45
2023/05/30 06:43:40;;;;;;;6.82;2.58;;;11.90;87.70;;;;;;5033646;28;20025;-43
2023/05/30 06:46:06;;;;;;;7.03;2.15;;;11.90;87.90;;;;;;5025642;28;20030;-46
2023/05/30 06:48:33;;;;;;;5.97;2.33;;;11.90;88.20;;;;;;5030136;28;20040;-45
2023/05/30 06:50:59;;;;;;;8.13;2.90;;;12.00;87.70;;;;;;5028848;28;20030;-44
2023/05/30 06:53:26;;;;;;;5.03;1.92;;;11.90;87.50;;;;;;5024579;28;20443;-45
2023/05/30 06:55:53;;;;;;;7.38;2.13;;;11.90;87.70;;;;;;5035064;28;20414;-44
2023/05/30 06:58:21;;;;;;;8.25;2.60;;;11.90;88.00;;;;;;5031747;28;20025;-43
2023/05/30 07:00:48;;;;;;;5.80;2.15;;;11.90;88.40;;;;;;5026169;28;20037;-46
2023/05/30 07:03:15;;;;;;;6.00;1.15;;;11.80;88.40;;;;;;5024783;28;20029;-44
2023/05/30 07:05:40;;;;;;;3.50;1.15;;;11.80;88.80;;;;;;5030394;28;20098;-44
2023/05/30 07:08:07;;;;;;;2.28;0.60;;;11.80;89.20;;;;;;5027219;28;20038;-44
2023/05/30 07:10:34;;;;;;;2.92;0.82;;;11.80;89.80;;;;;;5027075;28;20048;-45
2023/05/30 07:13:02;;;;;;;1.25;0.68;;;11.90;89.90;;;;;;5028743;28;20033;-46
2023/05/30 07:15:31;;;;;;;1.25;0.50;;;11.90;89.90;;;;;;5029184;28;20074;-45
2023/05/30 07:18:01;;;;;;;1.75;0.60;;;11.90;90.10;;;;;;5030668;28;20113;-49
2023/05/30 07:20:26;;;;;;;3.00;0.82;;;12.00;90.20;;;;;;5034085;28;20029;-46
2023/05/30 07:22:52;;;;;;;2.47;0.90;;;12.20;90.10;;;;;;5031630;28;20425;-45
2023/05/30 07:25:19;;;;;;;2.50;0.82;;;12.40;89.50;;;;;;5031469;28;20029;-46
2023/05/30 07:27:46;;;;;;;5.00;0.82;;;12.60;88.80;;;;;;5030786;28;20440;-45
2023/05/30 07:30:13;;;;;;;2.60;0.90;;;13.00;88.50;;;;;;5025972;28;20049;-46
2023/05/30 07:32:40;;;;;;;6.70;1.63;;;13.20;86.40;;;;;;5030056;28;20091;-45
2023/05/30 07:35:09;;;;;;;4.43;1.10;;;13.20;85.30;;;;;;5028701;28;20091;-45
2023/05/30 07:37:36;;;;;;;5.72;1.08;;;13.20;84.40;;;;;;5029459;28;20104;-50
2023/05/30 07:40:07;;;;;;;5.10;1.15;;;13.20;84.90;;;;;;5030553;28;20025;-49
2023/05/30 07:42:36;;;;;;;3.40;1.60;;;12.90;84.50;;;;;;5018387;28;20041;-47
2023/05/30 07:45:03;;;;;;;1.27;0.70;;;12.90;84.80;;;;;;5029611;28;20451;-45
2023/05/30 07:47:30;;;;;;;1.35;0.68;;;12.80;84.60;;;;;;5030198;28;20037;-45
2023/05/30 07:49:56;;;;;;;4.10;0.90;;;12.80;83.90;;;;;;5029072;28;20113;-45
2023/05/30 07:52:26;;;;;;;3.78;1.10;;;12.90;84.30;;;;;;5030394;28;20435;-47
2023/05/30 07:54:53;;;;;;;;;;;13.00;84.20;;;;;;5027120;28;20061;-46
2023/05/30 07:57:20;;;;;;;3.20;1.38;;;13.10;83.50;;;;;;5033199;28;19960;-45
2023/05/30 07:59:48;;;;;;;1.05;0.60;;;13.10;83.80;;;;;;5028956;28;20036;-48
2023/05/30 08:02:15;;;;;;;1.98;0.80;;;13.10;84.10;;;;;;5026565;28;20029;-45
2023/05/30 08:04:42;;;;;;;3.05;0.85;;;13.10;85.50;;;;;;5024296;28;20041;-45
2023/05/30 08:07:08;;;;;;;2.13;0.77;;;13.10;85.40;;;;;;5027508;28;20056;-44
2023/05/30 08:09:36;;;;;;;3.47;1.05;;;13.20;86.50;;;;;;5029321;28;20033;-46
2023/05/30 08:12:05;;;;;;;3.28;0.77;;;13.40;86.80;;;;;;5027476;28;20018;-46
2023/05/30 08:14:32;;;;;;;4.82;1.00;;;13.60;86.60;;;;;;5028150;28;20401;-46
2023/05/30 08:16:58;;;;;;;1.17;0.50;;;13.90;85.50;;;;;;5031343;28;20104;-45
2023/05/30 08:19:25;;;;;;;1.15;0.50;;;14.10;83.70;;;;;;5026261;28;20041;-45
2023/05/30 08:21:52;;;;;;;0.57;0.40;;;14.20;83.60;;;;;;5038476;28;20041;-47
2023/05/30 08:24:20;;;;;;;1.70;0.50;;;14.30;82.20;;;;;;5029338;28;20112;-45
2023/05/30 08:26:48;;;;;;;2.47;1.08;;;14.20;82.00;;;;;;5032623;28;20033;-44
2023/05/30 08:29:15;;;;;;;2.15;0.70;;;14.00;81.60;;;;;;5030561;28;20079;-49
2023/05/30 08:31:41;;;;;;;2.53;0.70;;;13.90;82.30;;;;;;5025306;28;20030;-47
2023/05/30 08:34:08;;;;;;;1.75;0.80;;;14.00;82.60;;;;;;5027852;28;20521;-50
2023/05/30 08:36:35;;;;;;;1.33;0.75;;;14.10;81.80;;;;;;5030231;28;20026;-47
2023/05/30 08:39:01;;;;;;;4.10;1.08;;;14.20;80.70;;;;;;5027129;28;20378;-46
2023/05/30 08:41:28;;;;;;;3.22;1.23;;;14.40;81.30;;;;;;5027648;28;20108;-48
2023/05/30 08:43:55;;;;;;;2.00;0.70;;;15.10;80.40;;;;;;5024719;28;20033;-46
2023/05/30 08:46:23;;;;;;;4.38;0.93;;;15.50;76.60;;;;;;5025172;28;20025;-48
2023/05/30 08:48:51;;;;;;;2.17;0.70;;;15.40;75.90;;;;;;5029758;28;20145;-45
2023/05/30 08:51:22;;;;;;;2.20;0.93;;;15.00;76.70;;;;;;5018413;28;20028;-46
2023/05/30 08:53:55;;;;;;;3.05;2.03;;;14.80;78.30;;;;;;5017579;28;20025;-46
2023/05/30 08:56:37;;;;;;;1.75;0.73;;;14.60;78.40;;;;;;5028263;28;20022;-46
2023/05/30 08:59:07;;;;;;;1.55;0.50;;;14.60;80.20;;;;;;5032241;28;20080;-45
2023/05/30 09:01:37;;;;;;;3.00;1.08;;;14.80;80.40;;;;;;5026294;28;20030;-46
2023/05/30 09:04:06;;;;;;;1.52;0.60;;;15.60;79.30;;;;;;5028280;28;21416;-45
2023/05/30 09:06:36;;;;;;;3.55;0.82;;;16.40;74.80;;;;;;5038650;28;20049;-45
2023/05/30 09:09:04;;;;;;;4.03;0.70;;;17.10;75.10;;;;;;5026039;28;20017;-45
2023/05/30 09:11:31;;;;;;;1.35;0.40;;;17.40;71.10;;;;;;5030251;28;20069;-46
2023/05/30 09:13:58;;;;;;;1.33;0.63;;;17.50;69.50;;;;;;5033090;28;20037;-45
2023/05/30 09:16:25;;;;;;;1.67;0.65;;;17.50;66.50;;;;;;5030541;28;20065;-45
2023/05/30 09:18:52;;;;;;;2.95;0.50;;;17.00;67.80;;;;;;5020431;28;20436;-45
2023/05/30 09:21:20;;;;;;;1.02;0.30;;;17.30;68.20;;;;;;5027292;28;20071;-48
2023/05/30 09:23:46;;;;;;;2.28;0.50;;;17.00;67.30;;;;;;5025840;28;20036;-44
2023/05/30 09:26:15;;;;;;;3.28;0.63;;;17.20;68.30;;;;;;5025915;28;20060;-46
2023/05/30 09:28:46;;;;;;;0.60;0.30;;;16.80;68.00;;;;;;5036566;28;20017;-46
2023/05/30 09:31:15;;;;;;;1.52;0.50;;;16.50;68.10;;;;;;5035368;28;20090;-45
2023/05/30 09:33:51;;;;;;;1.65;0.65;;;16.30;69.10;;;;;;5032616;28;20021;-47
2023/05/30 09:36:25;;;;;;;2.85;0.70;;;16.10;70.30;;;;;;5030329;28;20059;-48
2023/05/30 09:39:09;;;;;;;3.33;0.90;;;16.10;71.40;;;;;;5008669;28;20030;-46
2023/05/30 09:41:36;;;;;;;5.45;0.93;;;15.90;72.40;;;;;;5029825;28;20040;-46
2023/05/30 09:44:10;;;;;;;2.78;0.98;;;15.70;72.60;;;;;;5023265;28;20036;-45
2023/05/30 09:46:38;;;;;;;2.70;1.00;;;15.50;73.50;;;;;;5030737;28;20166;-46
2023/05/30 09:49:14;;;;;;;1.60;0.80;;;15.40;73.60;;;;;;5029582;28;20021;-45
2023/05/30 09:51:41;;;;;;;2.00;0.50;;;15.40;72.50;;;;;;5028204;28;20033;-51
2023/05/30 09:54:09;;;;;;;3.67;0.93;;;15.60;72.50;;;;;;5027411;28;20029;-46
2023/05/30 09:56:54;;;;;;;3.88;0.73;;;16.10;71.70;;;;;;5025237;28;20017;-47
2023/05/30 09:59:22;;;;;;;2.42;0.68;;;16.20;71.10;;;;;;5021149;28;20136;-46
2023/05/30 10:01:49;;;;;;;0.60;0.50;;;16.20;70.20;;;;;;5032506;28;20034;-47
2023/05/30 10:04:38;;;;;;;1.00;0.40;;;16.40;70.40;;;;;;5028713;28;20034;-45
2023/05/30 10:07:05;;;;;;;5.28;0.55;;;16.50;70.40;;;;;;5025368;28;20148;-46
2023/05/30 10:09:32;;;;;;;3.47;1.60;;;16.50;70.70;;;;;;5032027;28;20084;-46
2023/05/30 10:12:03;;;;;;;3.38;0.90;;;16.00;71.80;;;;;;5028165;28;20036;-45
2023/05/30 10:14:30;;;;;;;2.17;0.80;;;15.50;72.40;;;;;;5034291;28;21232;-46
2023/05/30 10:17:07;;;;;;;2.30;1.05;;;15.20;73.60;;;;;;5026178;28;20040;-45
2023/05/30 10:19:56;;;;;;;3.95;0.95;;;14.90;74.60;;;;;;5037590;28;20041;-47
2023/05/30 10:22:26;;;;;;;6.47;1.30;;;14.60;76.30;;;;;;5034150;28;20040;-48
2023/05/30 10:24:57;;;;;;;3.25;1.23;;;14.40;76.10;;;;;;5032558;28;20041;-46
2023/05/30 10:27:38;;;;;;;2.95;0.90;;;14.30;77.10;;;;;;5027389;28;20029;-46
2023/05/30 10:30:26;;;;;;;3.33;1.05;;;14.40;77.40;;;;;;5028031;28;20038;-46
2023/05/30 10:33:11;;;;;;;3.80;1.15;;;14.60;77.10;;;;;;5033294;28;20029;-45
2023/05/30 10:35:38;;;;;;;3.35;1.10;;;15.00;75.60;;;;;;5025433;28;20061;-46
2023/05/30 10:38:07;;;;;;;2.08;1.00;;;15.20;74.90;;;;;;5029025;28;20061;-46
2023/05/30 10:40:57;;;;;;;6.15;1.30;;;15.50;74.20;;;;;;5032352;28;21550;-45
2023/05/30 10:43:55;;;;;;;2.72;0.90;;;16.10;72.10;;;;;;5027812;28;20042;-46
2023/05/30 10:46:24;;;;;;;4.35;0.95;;;16.60;69.50;;;;;;5024954;28;20025;-45
2023/05/30 10:49:01;;;;;;;2.88;1.20;;;16.40;69.80;;;;;;5031061;28;20132;-49
2023/05/30 10:51:28;;;;;;;2.55;0.63;;;16.30;70.70;;;;;;5031559;28;20367;-46
2023/05/30 10:53:57;;;;;;;1.77;0.40;;;16.00;71.10;;;;;;5032912;28;20518;-46
2023/05/30 10:56:40;;;;;;;1.02;0.50;;;15.90;71.30;;;;;;5031917;28;20101;-45
2023/05/30 10:59:14;;;;;;;3.35;0.80;;;16.00;72.40;;;;;;5030510;28;20029;-45
2023/05/30 11:01:41;;;;;;;1.40;0.70;;;15.90;71.80;;;;;;5034435;28;20033;-45
2023/05/30 11:04:38;;;;;;;2.17;0.80;;;15.90;72.00;;;;;;5033021;28;20025;-46
2023/05/30 11:07:06;;;;;;;1.65;0.73;;;15.80;72.50;;;;;;5030516;28;20045;-45
2023/05/30 11:09:41;;;;;;;2.53;1.05;;;15.60;73.70;;;;;;5033024;28;20090;-45
2023/05/30 11:12:13;;;;;;;2.67;0.98;;;15.40;73.80;;;;;;5039588;28;20036;-45
2023/05/30 11:14:40;;;;;;;4.60;1.10;;;15.20;74.80;;;;;;5032570;28;20043;-46
2023/05/30 11:17:42;;;;;;;1.95;0.80;;;14.90;75.90;;;;;;5028368;28;20064;-48
2023/05/30 11:20:27;;;;;;;2.50;1.23;;;14.80;75.90;;;;;;5040398;28;20125;-46
2023/05/30 11:23:05;;;;;;;2.60;1.00;;;14.70;76.50;;;;;;5033123;28;20143;-46
2023/05/30 11:25:32;;;;;;;4.03;1.50;;;14.70;77.00;;;;;;5029878;28;20039;-48
2023/05/30 11:28:04;;;;;;;7.25;2.15;;;14.70;77.70;;;;;;5033677;28;20474;-48
2023/05/30 11:30:40;;;;;;;3.03;1.13;;;14.80;77.60;;;;;;5019358;28;20077;-48
2023/05/30 11:33:11;;;;;;;4.50;2.10;;;15.00;78.00;;;;;;5031759;28;20082;-45
2023/05/30 11:35:46;;;;;;;2.30;1.08;;;15.20;76.10;;;;;;5040239;28;20033;-48
2023/05/30 11:38:20;;;;;;;5.65;1.58;;;15.40;76.40;;;;;;5029629;28;20037;-47
2023/05/30 11:40:47;;;;;;;4.68;1.23;;;15.60;75.30;;;;;;5034579;28;20116;-47
2023/05/30 11:43:18;;;;;;;3.60;1.58;;;15.40;74.30;;;;;;5029152;28;20381;-45
2023/05/30 11:45:49;;;;;;;2.72;1.83;;;15.30;74.40;;;;;;5041707;28;20025;-47
2023/05/30 11:48:17;;;;;;;3.60;1.38;;;15.20;75.20;;;;;;5029735;28;20439;-45
2023/05/30 11:50:46;;;;;;;2.38;1.15;;;14.90;75.30;;;;;;5022839;28;20034;-46
2023/05/30 11:53:15;;;;;;;4.72;1.40;;;14.90;76.00;;;;;;5033011;28;20040;-45
2023/05/30 11:55:49;;;;;;;2.00;1.10;;;14.90;75.70;;;;;;5038100;28;20051;-47
2023/05/30 11:58:19;;;;;;;5.13;1.30;;;15.30;76.20;;;;;;5027303;28;20057;-48
2023/05/30 12:00:49;;;;;;;3.35;1.00;;;15.60;76.70;;;;;;5029522;28;20037;-46
2023/05/30 12:03:19;;;;;;;2.00;0.77;;;15.70;75.40;;;;;;5036010;28;20037;-46
2023/05/30 12:05:46;;;;;;;5.18;0.88;;;15.60;74.50;;;;;;5015577;28;20075;-46
2023/05/30 12:08:16;;;;;;;2.72;1.05;;;15.60;73.50;;;;;;5023200;28;20041;-48
2023/05/30 12:10:44;;;;;;;2.42;0.90;;;15.60;74.20;;;;;;5037486;28;20115;-46
2023/05/30 12:13:12;;;;;;;1.90;0.93;;;15.50;74.70;;;;;;5030201;28;20032;-47
2023/05/30 12:15:39;;;;;;;1.65;0.75;;;15.40;74.00;;;;;;5036171;28;20082;-46
2023/05/30 12:18:05;;;;;;;1.70;0.70;;;15.40;74.10;;;;;;5037033;28;20029;-46
2023/05/30 12:20:42;;;;;;;1.00;0.52;;;15.30;73.80;;;;;;5015959;28;20048;-47
2023/05/30 12:23:10;;;;;;;0.88;0.40;;;15.40;74.30;;;;;;5021928;28;20025;-47
2023/05/30 12:25:39;;;;;;;2.03;0.77;;;15.60;73.90;;;;;;5027484;28;20084;-45
2023/05/30 12:28:07;;;;;;;1.25;0.70;;;15.90;75.10;;;;;;5027347;28;20087;-45
2023/05/30 12:30:37;;;;;;;3.55;0.85;;;15.90;72.80;;;;;;5042368;28;20059;-46
2023/05/30 12:33:17;;;;;;;2.33;1.05;;;15.80;72.80;;;;;;5025362;28;20061;-47
2023/05/30 12:35:45;;;;;;;1.50;0.70;;;15.60;72.70;;;;;;5028288;28;20317;-47
2023/05/30 12:38:18;;;;;;;2.22;1.00;;;15.50;73.20;;;;;;5027928;28;20358;-47
2023/05/30 12:40:49;;;;;;;1.05;0.68;;;15.50;73.30;;;;;;5023689;28;20096;-49
2023/05/30 12:43:24;;;;;;;1.17;0.52;;;15.60;73.20;;;;;;5026530;28;20553;-45
2023/05/30 12:45:51;;;;;;;1.42;0.60;;;15.60;71.60;;;;;;5031927;28;20055;-45
2023/05/30 12:48:18;;;;;;;2.50;0.60;;;15.50;72.80;;;;;;5028430;28;20037;-48
2023/05/30 12:50:44;;;;;;;1.70;0.85;;;15.40;72.60;;;;;;5030226;28;20033;-46
2023/05/30 12:53:10;;;;;;;1.27;0.60;;;15.40;72.30;;;;;;5028576;28;20033;-45
2023/05/30 12:55:36;;;;;;;2.65;0.75;;;15.50;72.40;;;;;;5030308;28;20070;-47